Highland Lakes, New Jersey
Current Conditions -  °F | °C
As of 10:53 PM on Friday 19 Dec 2014 (Local Time) from KFWN Reporting Station
Few Clouds Few Clouds  
Wind Chill: 22°   Ceiling: Unl
Heat Index: 29°   Visibility: 10mi
Dew Point: 20°   Wind: 7mph
Humidity: 69%   Direction: 350°N
Pressure: 30.17"   Gusts: NA
Location:  41.18°N, 74.47°W
Report Text: KFWN 200353Z AUTO 35006KT 10SM FEW025 M02/M07 A3017 RMK AO2 SLP220 T10171067
Loading
Personal Weather Stations






























Interactive Weather Map New forecast layout! Learn more

10-Day Weather Forecast

Advertisements
Track Severe Weather on mobile